sensor_id;sensor_type;location;lat;lon;timestamp;pressure;altitude;pressure_sealevel;temperature;humidity
10518;BME280;5307;42.548;22.968;2024-02-15T00:01:45;94211.72;;;2.49;77.81
10518;BME280;5307;42.548;22.968;2024-02-15T00:04:11;94220.59;;;2.60;76.94
10518;BME280;5307;42.548;22.968;2024-02-15T00:06:38;94224.44;;;2.62;76.14
10518;BME280;5307;42.548;22.968;2024-02-15T00:09:05;94212.50;;;2.38;77.19
10518;BME280;5307;42.548;22.968;2024-02-15T00:11:32;94225.22;;;2.13;78.08
10518;BME280;5307;42.548;22.968;2024-02-15T00:13:59;94225.19;;;2.06;78.77
10518;BME280;5307;42.548;22.968;2024-02-15T00:16:27;94230.59;;;2.13;79.50
10518;BME280;5307;42.548;22.968;2024-02-15T00:18:54;94231.34;;;2.03;79.59
10518;BME280;5307;42.548;22.968;2024-02-15T00:21:22;94218.69;;;2.14;80.34
10518;BME280;5307;42.548;22.968;2024-02-15T00:23:49;94229.81;;;1.84;80.86
10518;BME280;5307;42.548;22.968;2024-02-15T00:26:15;94235.19;;;1.95;81.98
10518;BME280;5307;42.548;22.968;2024-02-15T00:28:42;94226.72;;;1.89;81.34
10518;BME280;5307;42.548;22.968;2024-02-15T00:31:09;94225.59;;;2.15;81.22
10518;BME280;5307;42.548;22.968;2024-02-15T00:33:37;94225.97;;;2.24;80.44
10518;BME280;5307;42.548;22.968;2024-02-15T00:36:04;94220.59;;;2.17;80.07
10518;BME280;5307;42.548;22.968;2024-02-15T00:38:31;94234.06;;;2.31;79.55
10518;BME280;5307;42.548;22.968;2024-02-15T00:40:58;94222.16;;;2.25;79.82
10518;BME280;5307;42.548;22.968;2024-02-15T00:43:26;94219.84;;;2.27;79.53
10518;BME280;5307;42.548;22.968;2024-02-15T00:45:53;94222.91;;;2.12;79.77
10518;BME280;5307;42.548;22.968;2024-02-15T00:48:19;94215.97;;;2.11;80.02
10518;BME280;5307;42.548;22.968;2024-02-15T00:50:48;94216.31;;;1.95;79.75
10518;BME280;5307;42.548;22.968;2024-02-15T00:53:14;94216.34;;;2.02;80.01
10518;BME280;5307;42.548;22.968;2024-02-15T00:55:42;94221.34;;;2.11;80.71
10518;BME280;5307;42.548;22.968;2024-02-15T00:58:09;94213.63;;;1.95;80.93
10518;BME280;5307;42.548;22.968;2024-02-15T01:00:35;94217.13;;;2.06;81.05
10518;BME280;5307;42.548;22.968;2024-02-15T01:03:03;94219.81;;;2.06;81.48
10518;BME280;5307;42.548;22.968;2024-02-15T01:05:30;94220.19;;;2.08;80.71
10518;BME280;5307;42.548;22.968;2024-02-15T01:08:00;94230.94;;;1.94;80.85
10518;BME280;5307;42.548;22.968;2024-02-15T01:10:27;94224.44;;;2.02;80.86
10518;BME280;5307;42.548;22.968;2024-02-15T01:12:54;94227.88;;;1.92;80.93
10518;BME280;5307;42.548;22.968;2024-02-15T01:15:20;94237.50;;;2.00;80.93
10518;BME280;5307;42.548;22.968;2024-02-15T01:17:48;94230.59;;;2.13;81.18
10518;BME280;5307;42.548;22.968;2024-02-15T01:20:15;94229.81;;;1.98;82.10
10518;BME280;5307;42.548;22.968;2024-02-15T01:22:41;94237.13;;;1.98;81.87
10518;BME280;5307;42.548;22.968;2024-02-15T01:31:48;94234.44;;;2.08;82.26
10518;BME280;5307;42.548;22.968;2024-02-15T01:34:14;94233.28;;;2.06;81.08
10518;BME280;5307;42.548;22.968;2024-02-15T01:36:41;94226.34;;;2.08;81.61
10518;BME280;5307;42.548;22.968;2024-02-15T01:39:08;94224.34;;;1.59;82.09
10518;BME280;5307;42.548;22.968;2024-02-15T01:41:35;94220.97;;;2.01;82.21
10518;BME280;5307;42.548;22.968;2024-02-15T01:44:02;94221.75;;;2.05;82.36
10518;BME280;5307;42.548;22.968;2024-02-15T01:46:29;94221.75;;;2.16;81.59
10518;BME280;5307;42.548;22.968;2024-02-15T01:48:58;94220.56;;;2.10;80.92
10518;BME280;5307;42.548;22.968;2024-02-15T01:51:25;94217.13;;;2.02;81.52
10518;BME280;5307;42.548;22.968;2024-02-15T01:53:54;94221.75;;;2.16;81.18
10518;BME280;5307;42.548;22.968;2024-02-15T01:56:22;94221.34;;;2.07;80.55
10518;BME280;5307;42.548;22.968;2024-02-15T01:58:57;94229.03;;;2.08;80.47
10518;BME280;5307;42.548;22.968;2024-02-15T02:01:24;94234.44;;;2.16;81.16
10518;BME280;5307;42.548;22.968;2024-02-15T02:03:56;94238.31;;;2.25;79.71
10518;BME280;5307;42.548;22.968;2024-02-15T02:06:24;94229.44;;;2.14;79.61
10518;BME280;5307;42.548;22.968;2024-02-15T02:08:51;94240.59;;;2.16;79.69
10518;BME280;5307;42.548;22.968;2024-02-15T02:11:20;94238.28;;;2.18;80.76
10518;BME280;5307;42.548;22.968;2024-02-15T02:13:46;94244.06;;;2.17;80.76
10518;BME280;5307;42.548;22.968;2024-02-15T02:16:27;94240.63;;;2.13;80.50
10518;BME280;5307;42.548;22.968;2024-02-15T02:18:55;94239.06;;;2.12;81.06
10518;BME280;5307;42.548;22.968;2024-02-15T02:21:24;94239.03;;;2.08;81.65
10518;BME280;5307;42.548;22.968;2024-02-15T02:23:53;94241.34;;;2.06;81.89
10518;BME280;5307;42.548;22.968;2024-02-15T02:26:23;94233.66;;;2.04;82.28
10518;BME280;5307;42.548;22.968;2024-02-15T02:28:51;94237.16;;;2.12;81.71
10518;BME280;5307;42.548;22.968;2024-02-15T02:31:18;94237.50;;;2.07;82.01
10518;BME280;5307;42.548;22.968;2024-02-15T02:33:49;94238.28;;;2.11;82.08
10518;BME280;5307;42.548;22.968;2024-02-15T02:36:17;94241.34;;;2.09;81.71
10518;BME280;5307;42.548;22.968;2024-02-15T02:38:44;94245.59;;;2.07;81.54
10518;BME280;5307;42.548;22.968;2024-02-15T02:41:11;94251.00;;;2.18;81.61
10518;BME280;5307;42.548;22.968;2024-02-15T02:43:40;94246.38;;;2.22;80.73
10518;BME280;5307;42.548;22.968;2024-02-15T02:46:09;94234.06;;;2.14;80.85
10518;BME280;5307;42.548;22.968;2024-02-15T02:48:36;94246.00;;;2.20;80.34
10518;BME280;5307;42.548;22.968;2024-02-15T02:51:04;94249.47;;;2.27;79.55
10518;BME280;5307;42.548;22.968;2024-02-15T02:53:30;94251.00;;;2.18;80.33
10518;BME280;5307;42.548;22.968;2024-02-15T02:55:57;94246.38;;;2.15;79.87
10518;BME280;5307;42.548;22.968;2024-02-15T02:58:24;94245.63;;;2.14;80.54
10518;BME280;5307;42.548;22.968;2024-02-15T03:00:52;94246.00;;;2.13;80.39
10518;BME280;5307;42.548;22.968;2024-02-15T03:03:19;94242.91;;;2.18;79.98
10518;BME280;5307;42.548;22.968;2024-02-15T03:05:46;94243.31;;;2.16;80.10
10518;BME280;5307;42.548;22.968;2024-02-15T03:08:14;94241.38;;;2.13;79.79
10518;BME280;5307;42.548;22.968;2024-02-15T03:10:42;94239.84;;;2.23;80.11
10518;BME280;5307;42.548;22.968;2024-02-15T03:13:13;94249.06;;;2.15;79.56
10518;BME280;5307;42.548;22.968;2024-02-15T03:15:40;94243.66;;;2.04;79.88
10518;BME280;5307;42.548;22.968;2024-02-15T03:28:00;94243.66;;;2.00;79.47
10518;BME280;5307;42.548;22.968;2024-02-15T03:33:21;94246.69;;;1.74;81.09
10518;BME280;5307;42.548;22.968;2024-02-15T03:35:51;94240.53;;;1.73;80.82
10518;BME280;5307;42.548;22.968;2024-02-15T03:38:18;94251.31;;;1.70;81.42
10518;BME280;5307;42.548;22.968;2024-02-15T03:40:45;94256.66;;;1.56;81.66
10518;BME280;5307;42.548;22.968;2024-02-15T03:43:13;94246.66;;;1.67;81.78
10518;BME280;5307;42.548;22.968;2024-02-15T03:45:39;94255.53;;;1.78;81.84
10518;BME280;5307;42.548;22.968;2024-02-15T03:48:07;94252.44;;;1.69;82.17
10518;BME280;5307;42.548;22.968;2024-02-15T03:50:34;94259.72;;;1.61;81.88
10518;BME280;5307;42.548;22.968;2024-02-15T03:53:01;94262.81;;;1.63;82.65
10518;BME280;5307;42.548;22.968;2024-02-15T03:55:28;94256.25;;;1.61;82.26
10518;BME280;5307;42.548;22.968;2024-02-15T03:57:54;94260.13;;;1.63;82.35
10518;BME280;5307;42.548;22.968;2024-02-15T04:00:24;94258.19;;;1.64;82.68
10518;BME280;5307;42.548;22.968;2024-02-15T04:02:51;94265.50;;;1.63;82.55
10518;BME280;5307;42.548;22.968;2024-02-15T04:05:18;94264.34;;;1.61;82.77
10518;BME280;5307;42.548;22.968;2024-02-15T04:07:47;94257.47;;;1.74;82.34
10518;BME280;5307;42.548;22.968;2024-02-15T04:10:14;94258.22;;;1.74;81.80
10518;BME280;5307;42.548;22.968;2024-02-15T04:12:43;94254.38;;;1.75;81.25
10518;BME280;5307;42.548;22.968;2024-02-15T04:15:10;94260.53;;;1.76;80.15
10518;BME280;5307;42.548;22.968;2024-02-15T04:24:18;94254.38;;;1.79;80.53
10518;BME280;5307;42.548;22.968;2024-02-15T04:26:46;94258.97;;;1.64;79.52
10518;BME280;5307;42.548;22.968;2024-02-15T04:29:14;94264.34;;;1.57;80.75
10518;BME280;5307;42.548;22.968;2024-02-15T04:31:40;94262.03;;;1.66;80.22
10518;BME280;5307;42.548;22.968;2024-02-15T04:34:09;94269.78;;;1.75;80.74
10518;BME280;5307;42.548;22.968;2024-02-15T04:36:36;94270.88;;;1.63;80.40
10518;BME280;5307;42.548;22.968;2024-02-15T04:39:03;94268.22;;;1.81;80.21
10518;BME280;5307;42.548;22.968;2024-02-15T04:41:31;94273.66;;;1.92;80.19
10518;BME280;5307;42.548;22.968;2024-02-15T04:43:58;94281.72;;;1.85;79.74
10518;BME280;5307;42.548;22.968;2024-02-15T04:46:25;94280.56;;;1.86;79.87
10518;BME280;5307;42.548;22.968;2024-02-15T04:48:52;94289.00;;;1.73;79.39
10518;BME280;5307;42.548;22.968;2024-02-15T04:51:20;94286.72;;;1.90;79.39
10518;BME280;5307;42.548;22.968;2024-02-15T04:53:46;94292.06;;;1.72;79.73
10518;BME280;5307;42.548;22.968;2024-02-15T04:56:14;94286.66;;;1.68;79.54
10518;BME280;5307;42.548;22.968;2024-02-15T04:58:43;94293.22;;;1.71;79.56
10518;BME280;5307;42.548;22.968;2024-02-15T05:01:13;94284.72;;;1.65;78.96
10518;BME280;5307;42.548;22.968;2024-02-15T05:03:40;94292.47;;;1.77;78.69
10518;BME280;5307;42.548;22.968;2024-02-15T05:06:07;94295.53;;;1.79;78.88
10518;BME280;5307;42.548;22.968;2024-02-15T05:08:36;94304.44;;;1.87;78.81
10518;BME280;5307;42.548;22.968;2024-02-15T05:11:04;94304.47;;;1.98;78.11
10518;BME280;5307;42.548;22.968;2024-02-15T05:13:33;94302.03;;;1.68;78.16
10518;BME280;5307;42.548;22.968;2024-02-15T05:16:01;94303.22;;;1.74;78.51
10518;BME280;5307;42.548;22.968;2024-02-15T05:18:28;94316.69;;;1.77;78.23
10518;BME280;5307;42.548;22.968;2024-02-15T05:20:56;94301.00;;;1.97;78.19
10518;BME280;5307;42.548;22.968;2024-02-15T05:23:22;94306.69;;;1.74;78.29
10518;BME280;5307;42.548;22.968;2024-02-15T05:25:49;94309.03;;;1.83;78.38
10518;BME280;5307;42.548;22.968;2024-02-15T05:28:16;94313.66;;;1.86;78.30
10518;BME280;5307;42.548;22.968;2024-02-15T05:30:43;94312.50;;;1.94;77.98
10518;BME280;5307;42.548;22.968;2024-02-15T05:33:11;94311.69;;;1.79;78.86
10518;BME280;5307;42.548;22.968;2024-02-15T05:35:38;94319.44;;;1.95;78.08
10518;BME280;5307;42.548;22.968;2024-02-15T05:38:07;94321.78;;;2.04;78.31
10518;BME280;5307;42.548;22.968;2024-02-15T05:40:33;94329.47;;;2.09;78.11
10518;BME280;5307;42.548;22.968;2024-02-15T05:43:02;94320.22;;;1.96;78.10
10518;BME280;5307;42.548;22.968;2024-02-15T05:45:30;94331.41;;;2.05;77.70
10518;BME280;5307;42.548;22.968;2024-02-15T05:48:05;94341.41;;;2.04;78.36
10518;BME280;5307;42.548;22.968;2024-02-15T05:50:39;94335.59;;;1.92;78.26
10518;BME280;5307;42.548;22.968;2024-02-15T05:53:05;94340.97;;;1.95;78.25
10518;BME280;5307;42.548;22.968;2024-02-15T05:55:39;94334.03;;;1.84;78.18
10518;BME280;5307;42.548;22.968;2024-02-15T05:58:09;94335.59;;;1.92;78.49
10518;BME280;5307;42.548;22.968;2024-02-15T06:00:37;94324.81;;;1.95;79.38
10518;BME280;5307;42.548;22.968;2024-02-15T06:03:06;94324.81;;;1.92;79.14
10518;BME280;5307;42.548;22.968;2024-02-15T06:05:35;94336.38;;;1.96;79.88
10518;BME280;5307;42.548;22.968;2024-02-15T06:08:04;94339.44;;;1.91;79.94
10518;BME280;5307;42.548;22.968;2024-02-15T06:10:31;94331.41;;;2.01;79.91
10518;BME280;5307;42.548;22.968;2024-02-15T06:12:58;94343.72;;;1.99;80.20
10518;BME280;5307;42.548;22.968;2024-02-15T06:15:24;94347.19;;;2.03;80.13
10518;BME280;5307;42.548;22.968;2024-02-15T06:17:52;94349.88;;;1.99;80.00
10518;BME280;5307;42.548;22.968;2024-02-15T06:20:19;94346.75;;;1.87;80.71
10518;BME280;5307;42.548;22.968;2024-02-15T06:22:46;94344.44;;;1.89;80.61
10518;BME280;5307;42.548;22.968;2024-02-15T06:25:15;94348.28;;;1.91;80.64
10518;BME280;5307;42.548;22.968;2024-02-15T06:27:46;94347.22;;;2.14;79.97
10518;BME280;5307;42.548;22.968;2024-02-15T06:30:14;94359.16;;;2.23;78.89
10518;BME280;5307;42.548;22.968;2024-02-15T06:32:58;94353.38;;;2.25;78.35
10518;BME280;5307;42.548;22.968;2024-02-15T06:35:43;94350.72;;;2.35;76.82
10518;BME280;5307;42.548;22.968;2024-02-15T06:38:27;94358.06;;;2.42;76.84
10518;BME280;5307;42.548;22.968;2024-02-15T06:41:13;94353.44;;;2.53;75.84
10518;BME280;5307;42.548;22.968;2024-02-15T06:43:40;94358.84;;;2.57;75.26
10518;BME280;5307;42.548;22.968;2024-02-15T06:46:07;94361.16;;;2.62;74.60
10518;BME280;5307;42.548;22.968;2024-02-15T06:48:34;94359.97;;;2.52;73.96
10518;BME280;5307;42.548;22.968;2024-02-15T06:51:02;94375.78;;;2.61;74.00
10518;BME280;5307;42.548;22.968;2024-02-15T06:53:29;94369.59;;;2.50;73.78
10518;BME280;5307;42.548;22.968;2024-02-15T06:55:56;94377.72;;;2.64;73.09
10518;BME280;5307;42.548;22.968;2024-02-15T06:58:24;94375.81;;;2.68;73.75
10518;BME280;5307;42.548;22.968;2024-02-15T07:00:52;94373.88;;;2.72;74.02
10518;BME280;5307;42.548;22.968;2024-02-15T07:03:20;94376.59;;;2.72;73.66
10518;BME280;5307;42.548;22.968;2024-02-15T07:05:48;94369.66;;;2.67;72.98
10518;BME280;5307;42.548;22.968;2024-02-15T07:15:30;94359.66;;;2.96;74.00
10518;BME280;5307;42.548;22.968;2024-02-15T07:17:58;94358.47;;;3.01;72.86
10518;BME280;5307;42.548;22.968;2024-02-15T07:20:25;94353.88;;;2.98;73.04
10518;BME280;5307;42.548;22.968;2024-02-15T07:22:52;94355.38;;;3.27;73.04
10518;BME280;5307;42.548;22.968;2024-02-15T07:25:19;94357.66;;;3.43;71.04
10518;BME280;5307;42.548;22.968;2024-02-15T07:27:46;94341.06;;;3.45;70.42
10518;BME280;5307;42.548;22.968;2024-02-15T07:30:14;94357.25;;;3.66;70.01
10518;BME280;5307;42.548;22.968;2024-02-15T07:32:42;94347.66;;;4.35;69.22
10518;BME280;5307;42.548;22.968;2024-02-15T07:35:09;94335.69;;;4.91;67.50
10518;BME280;5307;42.548;22.968;2024-02-15T07:37:36;94333.84;;;4.77;66.26
10518;BME280;5307;42.548;22.968;2024-02-15T07:40:03;94330.91;;;5.51;64.72
10518;BME280;5307;42.548;22.968;2024-02-15T07:42:33;94329.69;;;5.89;63.59
10518;BME280;5307;42.548;22.968;2024-02-15T07:45:00;94330.16;;;6.18;62.03
10518;BME280;5307;42.548;22.968;2024-02-15T07:47:27;94331.47;;;6.07;60.97
10518;BME280;5307;42.548;22.968;2024-02-15T07:49:56;94327.06;;;6.74;59.07
10518;BME280;5307;42.548;22.968;2024-02-15T07:52:23;94323.13;;;5.90;59.15
10518;BME280;5307;42.548;22.968;2024-02-15T07:54:50;94327.19;;;6.67;59.50
10518;BME280;5307;42.548;22.968;2024-02-15T07:57:18;94316.13;;;7.04;58.65
10518;BME280;5307;42.548;22.968;2024-02-15T07:59:46;94329.56;;;6.04;57.98
10518;BME280;5307;42.548;22.968;2024-02-15T08:02:13;94318.81;;;6.27;58.82
10518;BME280;5307;42.548;22.968;2024-02-15T08:04:43;94325.91;;;6.17;59.19
10518;BME280;5307;42.548;22.968;2024-02-15T08:07:11;94328.66;;;6.44;59.43
10518;BME280;5307;42.548;22.968;2024-02-15T08:09:37;94326.06;;;6.07;58.80
10518;BME280;5307;42.548;22.968;2024-02-15T08:12:04;94326.50;;;6.59;59.47
10518;BME280;5307;42.548;22.968;2024-02-15T08:14:31;94320.63;;;6.91;58.79
10518;BME280;5307;42.548;22.968;2024-02-15T08:16:58;94316.53;;;7.50;57.54
10518;BME280;5307;42.548;22.968;2024-02-15T08:19:26;94316.53;;;7.26;57.61
10518;BME280;5307;42.548;22.968;2024-02-15T08:21:54;94330.94;;;6.73;57.70
10518;BME280;5307;42.548;22.968;2024-02-15T08:24:23;94324.94;;;6.31;58.03
10518;BME280;5307;42.548;22.968;2024-02-15T08:26:49;94321.47;;;7.31;57.89
10518;BME280;5307;42.548;22.968;2024-02-15T08:29:17;94313.72;;;7.10;57.95
10518;BME280;5307;42.548;22.968;2024-02-15T08:31:45;94307.69;;;7.65;57.36
10518;BME280;5307;42.548;22.968;2024-02-15T08:34:12;94322.63;;;8.37;56.83
10518;BME280;5307;42.548;22.968;2024-02-15T08:36:40;94308.03;;;7.87;57.00
10518;BME280;5307;42.548;22.968;2024-02-15T08:39:06;94313.34;;;8.34;56.27
10518;BME280;5307;42.548;22.968;2024-02-15T08:41:39;94311.91;;;8.26;55.51
10518;BME280;5307;42.548;22.968;2024-02-15T08:44:05;94320.41;;;8.28;56.58
10518;BME280;5307;42.548;22.968;2024-02-15T08:46:37;94313.59;;;8.40;54.60
10518;BME280;5307;42.548;22.968;2024-02-15T08:49:03;94322.38;;;9.16;55.13
10518;BME280;5307;42.548;22.968;2024-02-15T08:51:30;94316.53;;;6.52;55.47
10518;BME280;5307;42.548;22.968;2024-02-15T08:53:57;94315.22;;;9.06;55.14
10518;BME280;5307;42.548;22.968;2024-02-15T08:56:25;94325.34;;;9.21;54.12
10518;BME280;5307;42.548;22.968;2024-02-15T08:58:53;94324.00;;;9.75;53.46
10518;BME280;5307;42.548;22.968;2024-02-15T09:01:20;94322.75;;;9.92;52.77
10518;BME280;5307;42.548;22.968;2024-02-15T09:03:47;94326.88;;;9.22;53.08
10518;BME280;5307;42.548;22.968;2024-02-15T09:06:14;94321.19;;;9.17;52.67
10518;BME280;5307;42.548;22.968;2024-02-15T09:08:41;94321.34;;;8.01;52.86
10518;BME280;5307;42.548;22.968;2024-02-15T09:11:08;94323.47;;;8.86;53.17
10518;BME280;5307;42.548;22.968;2024-02-15T09:13:37;94323.84;;;8.52;53.57
10518;BME280;5307;42.548;22.968;2024-02-15T09:16:06;94308.69;;;8.87;52.92
10518;BME280;5307;42.548;22.968;2024-02-15T09:18:32;94306.97;;;8.77;54.73
10518;BME280;5307;42.548;22.968;2024-02-15T09:21:00;94312.25;;;9.16;54.73
10518;BME280;5307;42.548;22.968;2024-02-15T09:23:26;94309.72;;;9.55;53.95
10518;BME280;5307;42.548;22.968;2024-02-15T09:25:53;94303.03;;;9.27;53.39
10518;BME280;5307;42.548;22.968;2024-02-15T09:28:20;94303.34;;;8.27;53.32
10518;BME280;5307;42.548;22.968;2024-02-15T09:30:48;94303.09;;;9.39;54.41
10518;BME280;5307;42.548;22.968;2024-02-15T09:33:19;94298.72;;;10.16;53.40
10518;BME280;5307;42.548;22.968;2024-02-15T09:35:46;94288.81;;;9.35;51.67
10518;BME280;5307;42.548;22.968;2024-02-15T09:38:13;94286.16;;;10.19;52.71
10518;BME280;5307;42.548;22.968;2024-02-15T09:40:42;94294.44;;;9.12;50.37
10518;BME280;5307;42.548;22.968;2024-02-15T09:43:09;94297.56;;;7.86;52.84
10518;BME280;5307;42.548;22.968;2024-02-15T09:45:39;94295.97;;;8.80;52.90
10518;BME280;5307;42.548;22.968;2024-02-15T09:48:06;94285.22;;;9.38;52.27
10518;BME280;5307;42.548;22.968;2024-02-15T09:50:39;94282.03;;;8.78;52.53
10518;BME280;5307;42.548;22.968;2024-02-15T09:53:08;94290.44;;;8.84;51.92
10518;BME280;5307;42.548;22.968;2024-02-15T09:55:39;94287.19;;;8.56;52.59
10518;BME280;5307;42.548;22.968;2024-02-15T09:58:08;94280.72;;;8.50;52.70
10518;BME280;5307;42.548;22.968;2024-02-15T10:10:33;94268.50;;;8.75;52.76
10518;BME280;5307;42.548;22.968;2024-02-15T10:13:01;94260.75;;;8.89;52.49
10518;BME280;5307;42.548;22.968;2024-02-15T10:15:28;94257.34;;;8.69;52.71
10518;BME280;5307;42.548;22.968;2024-02-15T10:17:55;94249.16;;;9.47;53.02
10518;BME280;5307;42.548;22.968;2024-02-15T10:20:23;94243.38;;;8.51;53.96
10518;BME280;5307;42.548;22.968;2024-02-15T10:22:51;94231.78;;;8.96;53.39
10518;BME280;5307;42.548;22.968;2024-02-15T10:25:19;94228.38;;;10.07;53.60
10518;BME280;5307;42.548;22.968;2024-02-15T10:27:49;94237.53;;;9.88;53.16
10518;BME280;5307;42.548;22.968;2024-02-15T10:30:17;94230.75;;;9.22;53.12
10518;BME280;5307;42.548;22.968;2024-02-15T10:32:44;94227.97;;;8.93;51.87
10518;BME280;5307;42.548;22.968;2024-02-15T10:35:19;94231.97;;;8.56;52.97
10518;BME280;5307;42.548;22.968;2024-02-15T10:37:46;94222.13;;;9.52;53.62
10518;BME280;5307;42.548;22.968;2024-02-15T10:40:17;94230.97;;;9.98;51.02
10518;BME280;5307;42.548;22.968;2024-02-15T10:42:46;94232.75;;;9.34;52.93
10518;BME280;5307;42.548;22.968;2024-02-15T10:45:15;94222.44;;;9.83;51.96
10518;BME280;5307;42.548;22.968;2024-02-15T10:47:44;94214.78;;;10.33;52.40
10518;BME280;5307;42.548;22.968;2024-02-15T10:50:12;94219.94;;;10.56;51.34
10518;BME280;5307;42.548;22.968;2024-02-15T10:52:48;94211.78;;;8.86;51.44
10518;BME280;5307;42.548;22.968;2024-02-15T10:55:26;94216.03;;;9.48;52.70
10518;BME280;5307;42.548;22.968;2024-02-15T10:58:01;94207.81;;;8.58;53.23
10518;BME280;5307;42.548;22.968;2024-02-15T11:00:39;94198.03;;;8.77;53.95
10518;BME280;5307;42.548;22.968;2024-02-15T11:03:07;94204.72;;;10.55;52.74
10518;BME280;5307;42.548;22.968;2024-02-15T11:05:36;94202.75;;;9.05;52.17
10518;BME280;5307;42.548;22.968;2024-02-15T11:08:05;94191.94;;;10.14;52.18
10518;BME280;5307;42.548;22.968;2024-02-15T11:10:33;94196.81;;;9.94;51.82
10518;BME280;5307;42.548;22.968;2024-02-15T11:13:00;94190.63;;;9.22;51.07
10518;BME280;5307;42.548;22.968;2024-02-15T11:15:42;94191.00;;;9.08;52.22
10518;BME280;5307;42.548;22.968;2024-02-15T11:18:12;94198.75;;;9.39;51.18
10518;BME280;5307;42.548;22.968;2024-02-15T11:20:49;94192.00;;;9.14;52.78
10518;BME280;5307;42.548;22.968;2024-02-15T11:23:26;94190.78;;;9.03;51.70
10518;BME280;5307;42.548;22.968;2024-02-15T11:25:54;94187.28;;;9.02;52.27
10518;BME280;5307;42.548;22.968;2024-02-15T11:28:45;94188.34;;;8.59;52.92
10518;BME280;5307;42.548;22.968;2024-02-15T11:31:54;94189.34;;;8.82;53.21
10518;BME280;5307;42.548;22.968;2024-02-15T11:34:44;94191.00;;;9.37;53.64
10518;BME280;5307;42.548;22.968;2024-02-15T11:40:13;94190.91;;;9.41;53.39
10518;BME280;5307;42.548;22.968;2024-02-15T11:42:40;94194.44;;;9.25;52.77
10518;BME280;5307;42.548;22.968;2024-02-15T11:45:08;94200.41;;;8.91;53.12
10518;BME280;5307;42.548;22.968;2024-02-15T11:47:39;94189.16;;;9.76;53.25
10518;BME280;5307;42.548;22.968;2024-02-15T11:50:08;94193.13;;;9.01;52.33
10518;BME280;5307;42.548;22.968;2024-02-15T11:52:38;94195.09;;;9.16;52.54
10518;BME280;5307;42.548;22.968;2024-02-15T11:55:05;94186.59;;;9.27;52.68
10518;BME280;5307;42.548;22.968;2024-02-15T11:57:36;94185.06;;;9.26;52.85
10518;BME280;5307;42.548;22.968;2024-02-15T12:00:20;94195.13;;;9.29;52.78
10518;BME280;5307;42.548;22.968;2024-02-15T12:03:03;94187.47;;;9.24;51.80
10518;BME280;5307;42.548;22.968;2024-02-15T12:05:49;94188.34;;;9.21;51.27
10518;BME280;5307;42.548;22.968;2024-02-15T12:08:33;94193.13;;;9.01;52.34
10518;BME280;5307;42.548;22.968;2024-02-15T12:11:18;94184.47;;;9.06;51.57
10518;BME280;5307;42.548;22.968;2024-02-15T12:14:02;94178.19;;;8.92;52.53
10518;BME280;5307;42.548;22.968;2024-02-15T12:16:46;94170.44;;;9.49;52.66
10518;BME280;5307;42.548;22.968;2024-02-15T12:19:32;94185.06;;;9.26;52.92
10518;BME280;5307;42.548;22.968;2024-02-15T12:22:00;94192.50;;;8.64;52.26
10518;BME280;5307;42.548;22.968;2024-02-15T12:24:27;94183.13;;;8.81;52.16
10518;BME280;5307;42.548;22.968;2024-02-15T12:27:00;94184.63;;;8.99;52.67
10518;BME280;5307;42.548;22.968;2024-02-15T12:29:28;94189.31;;;9.27;53.31
10518;BME280;5307;42.548;22.968;2024-02-15T12:31:56;94186.09;;;9.03;52.59
10518;BME280;5307;42.548;22.968;2024-02-15T12:34:22;94177.53;;;9.46;52.48
10518;BME280;5307;42.548;22.968;2024-02-15T12:37:04;94180.06;;;8.79;52.47
10518;BME280;5307;42.548;22.968;2024-02-15T12:39:31;94177.22;;;8.99;53.96
10518;BME280;5307;42.548;22.968;2024-02-15T12:41:58;94173.75;;;8.82;53.05
10518;BME280;5307;42.548;22.968;2024-02-15T12:44:25;94176.97;;;8.93;52.65
10518;BME280;5307;42.548;22.968;2024-02-15T12:46:55;94175.03;;;8.94;54.52
10518;BME280;5307;42.548;22.968;2024-02-15T12:49:30;94169.88;;;9.12;53.29
10518;BME280;5307;42.548;22.968;2024-02-15T12:55:12;94160.53;;;8.36;52.55
10518;BME280;5307;42.548;22.968;2024-02-15T13:07:37;94167.06;;;8.71;53.64
10518;BME280;5307;42.548;22.968;2024-02-15T13:10:06;94166.47;;;8.79;53.39
10518;BME280;5307;42.548;22.968;2024-02-15T13:12:35;94161.34;;;8.32;52.75
10518;BME280;5307;42.548;22.968;2024-02-15T13:15:06;94160.72;;;8.45;52.74
10518;BME280;5307;42.548;22.968;2024-02-15T13:17:37;94156.03;;;8.61;52.47
10518;BME280;5307;42.548;22.968;2024-02-15T13:20:05;94155.28;;;8.45;53.12
10518;BME280;5307;42.548;22.968;2024-02-15T13:22:37;94150.03;;;8.18;53.38
10518;BME280;5307;42.548;22.968;2024-02-15T13:25:05;94155.44;;;8.01;52.57
10518;BME280;5307;42.548;22.968;2024-02-15T13:27:33;94156.28;;;8.51;54.15
10518;BME280;5307;42.548;22.968;2024-02-15T13:30:01;94154.28;;;8.19;52.89
10518;BME280;5307;42.548;22.968;2024-02-15T13:32:28;94146.75;;;8.43;54.09
10518;BME280;5307;42.548;22.968;2024-02-15T13:34:54;94145.53;;;8.44;54.37
10518;BME280;5307;42.548;22.968;2024-02-15T13:37:22;94150.38;;;8.20;53.51
10518;BME280;5307;42.548;22.968;2024-02-15T13:39:50;94146.69;;;8.46;53.87
10518;BME280;5307;42.548;22.968;2024-02-15T13:42:16;94152.31;;;8.03;53.17
10518;BME280;5307;42.548;22.968;2024-02-15T13:44:44;94147.03;;;7.96;53.69
10518;BME280;5307;42.548;22.968;2024-02-15T13:47:12;94148.13;;;8.35;54.08
10518;BME280;5307;42.548;22.968;2024-02-15T13:49:39;94141.91;;;8.34;55.01
10518;BME280;5307;42.548;22.968;2024-02-15T13:52:06;94143.63;;;7.92;53.86
10518;BME280;5307;42.548;22.968;2024-02-15T13:54:33;94141.19;;;8.30;54.50
10518;BME280;5307;42.548;22.968;2024-02-15T13:57:00;94138.66;;;8.23;55.13
10518;BME280;5307;42.548;22.968;2024-02-15T13:59:33;94141.59;;;8.28;53.91
10518;BME280;5307;42.548;22.968;2024-02-15T14:02:00;94139.25;;;8.30;54.32
10518;BME280;5307;42.548;22.968;2024-02-15T14:04:30;94142.38;;;8.29;53.88
10518;BME280;5307;42.548;22.968;2024-02-15T14:07:00;94146.28;;;8.12;54.28
10518;BME280;5307;42.548;22.968;2024-02-15T14:09:27;94140.84;;;8.28;54.42
10518;BME280;5307;42.548;22.968;2024-02-15T14:11:54;94147.47;;;8.11;54.62
10518;BME280;5307;42.548;22.968;2024-02-15T14:14:20;94149.72;;;8.32;54.54
10518;BME280;5307;42.548;22.968;2024-02-15T14:16:47;94150.47;;;8.32;54.39
10518;BME280;5307;42.548;22.968;2024-02-15T14:19:14;94164.41;;;8.18;54.20